sensor_id;sensor_type;location;lat;lon;timestamp;P1;durP1;ratioP1;P2;durP2;ratioP2
15183;SDS011;7693;49.266;7.104;2023-03-14T06:18:36;3.40;;;1.90;;
15183;SDS011;7693;49.266;7.104;2023-03-14T06:21:02;4.33;;;2.37;;
15183;SDS011;7693;49.266;7.104;2023-03-14T06:23:28;4.73;;;2.30;;
15183;SDS011;7693;49.266;7.104;2023-03-14T06:25:55;2.47;;;1.87;;
15183;SDS011;7693;49.266;7.104;2023-03-14T06:28:21;4.17;;;2.00;;
15183;SDS011;7693;49.266;7.104;2023-03-14T06:30:46;4.37;;;1.87;;
15183;SDS011;7693;49.266;7.104;2023-03-14T06:33:12;2.43;;;1.77;;
15183;SDS011;7693;49.266;7.104;2023-03-14T06:35:37;2.83;;;1.80;;
15183;SDS011;7693;49.266;7.104;2023-03-14T06:38:03;1.80;;;1.70;;
15183;SDS011;7693;49.266;7.104;2023-03-14T06:40:29;2.63;;;1.70;;
15183;SDS011;7693;49.266;7.104;2023-03-14T06:42:55;2.70;;;1.97;;
15183;SDS011;7693;49.266;7.104;2023-03-14T06:45:20;5.07;;;2.03;;
15183;SDS011;7693;49.266;7.104;2023-03-14T06:47:46;2.30;;;2.10;;
15183;SDS011;7693;49.266;7.104;2023-03-14T06:50:11;3.37;;;1.80;;
15183;SDS011;7693;49.266;7.104;2023-03-14T06:52:37;3.43;;;1.77;;
15183;SDS011;7693;49.266;7.104;2023-03-14T06:55:06;2.70;;;1.70;;
15183;SDS011;7693;49.266;7.104;2023-03-14T06:57:32;1.73;;;1.63;;
15183;SDS011;7693;49.266;7.104;2023-03-14T06:59:57;3.10;;;1.37;;
15183;SDS011;7693;49.266;7.104;2023-03-14T07:02:23;2.73;;;1.43;;
15183;SDS011;7693;49.266;7.104;2023-03-14T07:04:49;2.70;;;1.90;;
15183;SDS011;7693;49.266;7.104;2023-03-14T07:07:14;1.73;;;1.20;;
15183;SDS011;7693;49.266;7.104;2023-03-14T07:09:41;1.80;;;1.70;;
15183;SDS011;7693;49.266;7.104;2023-03-14T07:12:07;2.00;;;1.83;;
15183;SDS011;7693;49.266;7.104;2023-03-14T07:14:32;2.33;;;1.60;;
15183;SDS011;7693;49.266;7.104;2023-03-14T07:16:58;2.50;;;1.57;;
15183;SDS011;7693;49.266;7.104;2023-03-14T07:19:23;3.27;;;1.80;;
15183;SDS011;7693;49.266;7.104;2023-03-14T07:21:49;2.40;;;1.50;;
15183;SDS011;7693;49.266;7.104;2023-03-14T07:24:14;2.33;;;1.50;;
15183;SDS011;7693;49.266;7.104;2023-03-14T07:26:40;1.80;;;1.70;;
15183;SDS011;7693;49.266;7.104;2023-03-14T07:29:06;4.73;;;1.80;;
15183;SDS011;7693;49.266;7.104;2023-03-14T07:31:31;3.83;;;1.50;;
15183;SDS011;7693;49.266;7.104;2023-03-14T07:33:57;1.70;;;1.60;;
15183;SDS011;7693;49.266;7.104;2023-03-14T07:36:23;1.20;;;1.20;;
15183;SDS011;7693;49.266;7.104;2023-03-14T07:38:48;1.50;;;1.30;;
15183;SDS011;7693;49.266;7.104;2023-03-14T07:41:14;2.10;;;1.60;;
15183;SDS011;7693;49.266;7.104;2023-03-14T07:43:40;3.17;;;1.43;;
15183;SDS011;7693;49.266;7.104;2023-03-14T07:46:06;1.27;;;1.23;;
15183;SDS011;7693;49.266;7.104;2023-03-14T07:48:32;3.37;;;1.50;;
15183;SDS011;7693;49.266;7.104;2023-03-14T07:50:58;1.93;;;1.50;;
15183;SDS011;7693;49.266;7.104;2023-03-14T07:53:24;2.30;;;1.40;;
15183;SDS011;7693;49.266;7.104;2023-03-14T07:55:52;1.80;;;1.50;;
15183;SDS011;7693;49.266;7.104;2023-03-14T07:58:19;1.97;;;1.20;;
15183;SDS011;7693;49.266;7.104;2023-03-14T08:00:46;1.27;;;1.27;;
15183;SDS011;7693;49.266;7.104;2023-03-14T08:03:12;2.67;;;1.60;;
15183;SDS011;7693;49.266;7.104;2023-03-14T08:05:38;1.20;;;1.20;;
15183;SDS011;7693;49.266;7.104;2023-03-14T08:08:04;1.43;;;1.30;;
15183;SDS011;7693;49.266;7.104;2023-03-14T08:10:31;1.30;;;1.30;;
15183;SDS011;7693;49.266;7.104;2023-03-14T08:12:57;2.33;;;1.40;;
15183;SDS011;7693;49.266;7.104;2023-03-14T08:15:24;1.40;;;1.40;;
15183;SDS011;7693;49.266;7.104;2023-03-14T08:17:51;2.77;;;1.50;;
15183;SDS011;7693;49.266;7.104;2023-03-14T08:20:18;1.57;;;1.47;;
15183;SDS011;7693;49.266;7.104;2023-03-14T08:22:45;1.60;;;1.20;;
15183;SDS011;7693;49.266;7.104;2023-03-14T08:25:11;1.83;;;1.60;;
15183;SDS011;7693;49.266;7.104;2023-03-14T08:27:37;3.70;;;1.40;;
15183;SDS011;7693;49.266;7.104;2023-03-14T08:30:04;1.43;;;1.33;;
15183;SDS011;7693;49.266;7.104;2023-03-14T08:32:31;1.00;;;1.00;;
15183;SDS011;7693;49.266;7.104;2023-03-14T08:34:57;1.47;;;1.40;;
15183;SDS011;7693;49.266;7.104;2023-03-14T08:37:22;1.30;;;1.20;;
15183;SDS011;7693;49.266;7.104;2023-03-14T08:39:49;1.90;;;1.63;;
15183;SDS011;7693;49.266;7.104;2023-03-14T08:42:15;1.60;;;1.50;;
15183;SDS011;7693;49.266;7.104;2023-03-14T08:44:42;1.77;;;1.60;;
15183;SDS011;7693;49.266;7.104;2023-03-14T08:47:07;1.50;;;1.40;;
15183;SDS011;7693;49.266;7.104;2023-03-14T08:49:33;1.70;;;1.60;;
15183;SDS011;7693;49.266;7.104;2023-03-14T08:51:58;1.77;;;1.67;;
15183;SDS011;7693;49.266;7.104;2023-03-14T08:54:26;1.57;;;1.47;;
15183;SDS011;7693;49.266;7.104;2023-03-14T08:56:51;1.73;;;1.63;;
15183;SDS011;7693;49.266;7.104;2023-03-14T08:59:17;1.40;;;1.30;;
15183;SDS011;7693;49.266;7.104;2023-03-14T09:01:43;1.23;;;1.23;;
15183;SDS011;7693;49.266;7.104;2023-03-14T09:04:08;1.33;;;1.33;;
15183;SDS011;7693;49.266;7.104;2023-03-14T09:06:34;1.40;;;1.40;;
15183;SDS011;7693;49.266;7.104;2023-03-14T09:09:00;2.00;;;1.30;;
15183;SDS011;7693;49.266;7.104;2023-03-14T09:11:26;2.30;;;1.30;;
15183;SDS011;7693;49.266;7.104;2023-03-14T09:13:52;1.40;;;1.40;;
15183;SDS011;7693;49.266;7.104;2023-03-14T09:16:17;1.63;;;1.23;;
15183;SDS011;7693;49.266;7.104;2023-03-14T09:18:43;1.27;;;1.23;;
15183;SDS011;7693;49.266;7.104;2023-03-14T09:21:09;2.80;;;1.50;;
15183;SDS011;7693;49.266;7.104;2023-03-14T09:23:34;1.63;;;1.53;;
15183;SDS011;7693;49.266;7.104;2023-03-14T09:26:00;2.20;;;1.27;;
15183;SDS011;7693;49.266;7.104;2023-03-14T09:28:26;1.37;;;1.33;;
15183;SDS011;7693;49.266;7.104;2023-03-14T09:30:51;1.50;;;1.47;;
15183;SDS011;7693;49.266;7.104;2023-03-14T09:33:17;1.90;;;1.60;;
15183;SDS011;7693;49.266;7.104;2023-03-14T09:35:43;2.30;;;2.10;;
15183;SDS011;7693;49.266;7.104;2023-03-14T09:38:09;1.60;;;1.50;;
15183;SDS011;7693;49.266;7.104;2023-03-14T09:40:35;1.80;;;1.67;;
15183;SDS011;7693;49.266;7.104;2023-03-14T09:43:02;2.10;;;1.60;;
15183;SDS011;7693;49.266;7.104;2023-03-14T09:45:30;1.40;;;1.40;;
15183;SDS011;7693;49.266;7.104;2023-03-14T09:47:59;1.70;;;1.60;;
15183;SDS011;7693;49.266;7.104;2023-03-14T09:50:30;1.60;;;1.60;;
15183;SDS011;7693;49.266;7.104;2023-03-14T09:53:02;1.30;;;1.30;;
15183;SDS011;7693;49.266;7.104;2023-03-14T09:55:31;1.80;;;1.10;;
15183;SDS011;7693;49.266;7.104;2023-03-14T09:57:59;1.10;;;1.10;;
15183;SDS011;7693;49.266;7.104;2023-03-14T10:00:28;1.33;;;1.30;;
15183;SDS011;7693;49.266;7.104;2023-03-14T10:03:00;1.40;;;1.40;;
15183;SDS011;7693;49.266;7.104;2023-03-14T10:05:39;1.20;;;1.20;;
15183;SDS011;7693;49.266;7.104;2023-03-14T10:08:06;1.30;;;1.30;;
15183;SDS011;7693;49.266;7.104;2023-03-14T10:10:35;1.40;;;1.40;;
15183;SDS011;7693;49.266;7.104;2023-03-14T10:15:53;1.40;;;1.40;;
15183;SDS011;7693;49.266;7.104;2023-03-14T10:18:23;1.03;;;1.03;;
15183;SDS011;7693;49.266;7.104;2023-03-14T10:20:49;1.53;;;1.43;;
15183;SDS011;7693;49.266;7.104;2023-03-14T10:23:32;2.93;;;1.60;;
15183;SDS011;7693;49.266;7.104;2023-03-14T10:28:34;1.30;;;1.30;;
15183;SDS011;7693;49.266;7.104;2023-03-14T10:31:02;1.60;;;1.50;;
15183;SDS011;7693;49.266;7.104;2023-03-14T10:33:32;1.60;;;1.60;;
15183;SDS011;7693;49.266;7.104;2023-03-14T10:38:31;2.10;;;1.40;;
15183;SDS011;7693;49.266;7.104;2023-03-14T10:40:59;1.80;;;1.73;;
15183;SDS011;7693;49.266;7.104;2023-03-14T10:45:59;1.73;;;1.63;;
15183;SDS011;7693;49.266;7.104;2023-03-14T10:48:39;1.60;;;1.60;;
15183;SDS011;7693;49.266;7.104;2023-03-14T10:53:46;2.07;;;1.90;;
15183;SDS011;7693;49.266;7.104;2023-03-14T10:56:15;1.60;;;1.60;;
15183;SDS011;7693;49.266;7.104;2023-03-14T10:58:46;2.90;;;2.80;;
15183;SDS011;7693;49.266;7.104;2023-03-14T11:01:26;2.10;;;1.83;;
15183;SDS011;7693;49.266;7.104;2023-03-14T11:07:42;1.80;;;1.80;;
15183;SDS011;7693;49.266;7.104;2023-03-14T11:10:08;2.00;;;1.80;;
15183;SDS011;7693;49.266;7.104;2023-03-14T11:20:32;1.90;;;1.80;;
15183;SDS011;7693;49.266;7.104;2023-03-14T11:23:13;2.20;;;2.10;;
15183;SDS011;7693;49.266;7.104;2023-03-14T11:31:02;1.90;;;1.80;;
15183;SDS011;7693;49.266;7.104;2023-03-14T13:18:46;2.30;;;1.53;;
15183;SDS011;7693;49.266;7.104;2023-03-14T13:21:22;2.13;;;1.70;;
15183;SDS011;7693;49.266;7.104;2023-03-14T13:26:24;1.60;;;1.50;;
15183;SDS011;7693;49.266;7.104;2023-03-14T13:28:57;3.73;;;1.47;;
15183;SDS011;7693;49.266;7.104;2023-03-14T13:31:23;3.97;;;2.00;;
15183;SDS011;7693;49.266;7.104;2023-03-14T13:33:56;3.27;;;1.90;;
15183;SDS011;7693;49.266;7.104;2023-03-14T13:36:32;3.43;;;1.80;;
15183;SDS011;7693;49.266;7.104;2023-03-14T13:39:00;1.93;;;1.30;;
15183;SDS011;7693;49.266;7.104;2023-03-14T13:41:27;2.47;;;1.80;;
15183;SDS011;7693;49.266;7.104;2023-03-14T13:46:48;2.07;;;1.80;;
15183;SDS011;7693;49.266;7.104;2023-03-14T13:49:18;3.90;;;1.77;;
15183;SDS011;7693;49.266;7.104;2023-03-14T13:51:47;4.50;;;1.90;;
15183;SDS011;7693;49.266;7.104;2023-03-14T13:54:14;4.17;;;1.70;;
15183;SDS011;7693;49.266;7.104;2023-03-14T13:56:41;5.00;;;1.80;;
15183;SDS011;7693;49.266;7.104;2023-03-14T13:59:25;5.43;;;2.57;;
15183;SDS011;7693;49.266;7.104;2023-03-14T14:01:56;3.27;;;2.03;;
15183;SDS011;7693;49.266;7.104;2023-03-14T14:04:24;6.47;;;3.07;;
15183;SDS011;7693;49.266;7.104;2023-03-14T14:09:27;5.00;;;2.20;;
15183;SDS011;7693;49.266;7.104;2023-03-14T14:12:03;6.73;;;2.53;;
15183;SDS011;7693;49.266;7.104;2023-03-14T14:14:52;4.57;;;2.10;;
15183;SDS011;7693;49.266;7.104;2023-03-14T14:20:18;2.27;;;1.63;;
15183;SDS011;7693;49.266;7.104;2023-03-14T14:22:48;2.80;;;2.27;;
15183;SDS011;7693;49.266;7.104;2023-03-14T14:25:14;2.43;;;1.50;;
15183;SDS011;7693;49.266;7.104;2023-03-14T14:27:42;3.53;;;1.87;;
15183;SDS011;7693;49.266;7.104;2023-03-14T14:32:43;4.00;;;1.90;;
15183;SDS011;7693;49.266;7.104;2023-03-14T14:35:23;3.00;;;1.97;;
15183;SDS011;7693;49.266;7.104;2023-03-14T14:37:49;2.63;;;1.40;;
15183;SDS011;7693;49.266;7.104;2023-03-14T14:42:45;5.93;;;2.07;;
15183;SDS011;7693;49.266;7.104;2023-03-14T14:45:24;2.37;;;1.80;;
15183;SDS011;7693;49.266;7.104;2023-03-14T14:50:30;5.57;;;2.43;;
15183;SDS011;7693;49.266;7.104;2023-03-14T14:52:58;3.17;;;1.80;;
15183;SDS011;7693;49.266;7.104;2023-03-14T14:55:31;3.50;;;2.57;;
15183;SDS011;7693;49.266;7.104;2023-03-14T14:58:18;2.90;;;2.00;;
15183;SDS011;7693;49.266;7.104;2023-03-14T15:00:51;2.20;;;2.00;;
15183;SDS011;7693;49.266;7.104;2023-03-14T15:03:18;4.13;;;2.13;;
15183;SDS011;7693;49.266;7.104;2023-03-14T15:05:44;3.77;;;1.90;;
15183;SDS011;7693;49.266;7.104;2023-03-14T15:08:10;3.57;;;2.00;;
15183;SDS011;7693;49.266;7.104;2023-03-14T15:10:36;3.93;;;1.77;;
15183;SDS011;7693;49.266;7.104;2023-03-14T15:13:02;1.87;;;1.63;;
15183;SDS011;7693;49.266;7.104;2023-03-14T15:15:27;3.10;;;2.17;;
15183;SDS011;7693;49.266;7.104;2023-03-14T15:17:53;3.47;;;2.13;;
15183;SDS011;7693;49.266;7.104;2023-03-14T15:20:19;4.93;;;1.60;;
15183;SDS011;7693;49.266;7.104;2023-03-14T15:22:45;2.27;;;1.70;;
15183;SDS011;7693;49.266;7.104;2023-03-14T15:25:11;2.73;;;1.87;;
15183;SDS011;7693;49.266;7.104;2023-03-14T15:27:38;2.57;;;2.10;;
15183;SDS011;7693;49.266;7.104;2023-03-14T15:30:14;1.87;;;1.67;;
15183;SDS011;7693;49.266;7.104;2023-03-14T15:32:40;4.67;;;2.20;;
15183;SDS011;7693;49.266;7.104;2023-03-14T15:35:06;6.10;;;2.47;;
15183;SDS011;7693;49.266;7.104;2023-03-14T15:37:32;3.50;;;1.70;;
15183;SDS011;7693;49.266;7.104;2023-03-14T15:39:58;3.73;;;1.87;;
15183;SDS011;7693;49.266;7.104;2023-03-14T15:42:24;2.33;;;2.10;;
15183;SDS011;7693;49.266;7.104;2023-03-14T15:44:49;3.27;;;2.53;;
15183;SDS011;7693;49.266;7.104;2023-03-14T15:47:15;2.40;;;2.10;;
15183;SDS011;7693;49.266;7.104;2023-03-14T15:49:41;9.13;;;2.40;;
15183;SDS011;7693;49.266;7.104;2023-03-14T15:52:07;4.33;;;2.07;;
15183;SDS011;7693;49.266;7.104;2023-03-14T15:54:33;4.07;;;2.17;;
15183;SDS011;7693;49.266;7.104;2023-03-14T15:56:59;2.43;;;2.03;;
15183;SDS011;7693;49.266;7.104;2023-03-14T15:59:25;8.67;;;2.30;;
15183;SDS011;7693;49.266;7.104;2023-03-14T16:01:51;5.37;;;2.00;;
15183;SDS011;7693;49.266;7.104;2023-03-14T16:04:16;3.90;;;1.83;;
15183;SDS011;7693;49.266;7.104;2023-03-14T16:06:43;4.23;;;2.13;;
15183;SDS011;7693;49.266;7.104;2023-03-14T16:09:10;2.40;;;2.00;;
15183;SDS011;7693;49.266;7.104;2023-03-14T16:11:39;5.27;;;2.30;;
15183;SDS011;7693;49.266;7.104;2023-03-14T16:14:05;4.73;;;2.20;;
15183;SDS011;7693;49.266;7.104;2023-03-14T16:16:30;2.17;;;1.97;;
15183;SDS011;7693;49.266;7.104;2023-03-14T16:18:56;3.33;;;2.00;;
15183;SDS011;7693;49.266;7.104;2023-03-14T16:21:22;2.67;;;2.07;;
15183;SDS011;7693;49.266;7.104;2023-03-14T16:23:48;3.33;;;2.20;;
15183;SDS011;7693;49.266;7.104;2023-03-14T16:26:17;3.37;;;2.07;;
15183;SDS011;7693;49.266;7.104;2023-03-14T16:28:44;4.33;;;2.00;;
15183;SDS011;7693;49.266;7.104;2023-03-14T16:31:11;2.90;;;2.27;;
15183;SDS011;7693;49.266;7.104;2023-03-14T16:33:40;5.03;;;2.30;;
15183;SDS011;7693;49.266;7.104;2023-03-14T16:36:07;4.63;;;2.13;;
15183;SDS011;7693;49.266;7.104;2023-03-14T16:38:35;5.80;;;2.23;;
15183;SDS011;7693;49.266;7.104;2023-03-14T16:41:05;3.83;;;2.10;;
15183;SDS011;7693;49.266;7.104;2023-03-14T16:43:33;3.33;;;2.07;;
15183;SDS011;7693;49.266;7.104;2023-03-14T16:46:01;5.67;;;2.27;;
15183;SDS011;7693;49.266;7.104;2023-03-14T16:48:27;4.80;;;2.10;;
15183;SDS011;7693;49.266;7.104;2023-03-14T16:50:53;4.07;;;1.90;;
15183;SDS011;7693;49.266;7.104;2023-03-14T16:53:20;6.23;;;2.07;;
15183;SDS011;7693;49.266;7.104;2023-03-14T16:55:46;5.10;;;2.27;;
15183;SDS011;7693;49.266;7.104;2023-03-14T16:58:12;3.30;;;2.10;;
15183;SDS011;7693;49.266;7.104;2023-03-14T17:00:37;2.20;;;1.80;;
15183;SDS011;7693;49.266;7.104;2023-03-14T17:03:04;3.53;;;2.33;;
15183;SDS011;7693;49.266;7.104;2023-03-14T17:05:30;3.50;;;2.50;;
15183;SDS011;7693;49.266;7.104;2023-03-14T17:07:56;2.77;;;2.17;;
15183;SDS011;7693;49.266;7.104;2023-03-14T17:10:22;5.47;;;2.70;;
15183;SDS011;7693;49.266;7.104;2023-03-14T17:12:48;5.03;;;2.03;;
15183;SDS011;7693;49.266;7.104;2023-03-14T17:15:13;3.60;;;1.90;;
15183;SDS011;7693;49.266;7.104;2023-03-14T17:17:39;1.90;;;1.53;;
15183;SDS011;7693;49.266;7.104;2023-03-14T17:20:05;3.60;;;2.20;;
15183;SDS011;7693;49.266;7.104;2023-03-14T17:22:33;3.00;;;2.00;;
15183;SDS011;7693;49.266;7.104;2023-03-14T17:24:59;1.83;;;1.70;;
15183;SDS011;7693;49.266;7.104;2023-03-14T17:27:25;2.40;;;2.20;;
15183;SDS011;7693;49.266;7.104;2023-03-14T17:29:52;1.80;;;1.70;;
15183;SDS011;7693;49.266;7.104;2023-03-14T17:32:17;2.73;;;1.67;;
15183;SDS011;7693;49.266;7.104;2023-03-14T17:34:43;2.73;;;1.80;;
15183;SDS011;7693;49.266;7.104;2023-03-14T17:37:09;1.77;;;1.67;;
15183;SDS011;7693;49.266;7.104;2023-03-14T17:39:34;1.70;;;1.60;;
15183;SDS011;7693;49.266;7.104;2023-03-14T17:42:00;1.63;;;1.53;;
15183;SDS011;7693;49.266;7.104;2023-03-14T17:44:26;3.93;;;1.70;;
15183;SDS011;7693;49.266;7.104;2023-03-14T17:46:51;3.00;;;1.67;;
15183;SDS011;7693;49.266;7.104;2023-03-14T17:49:17;1.70;;;1.60;;
15183;SDS011;7693;49.266;7.104;2023-03-14T17:51:42;2.80;;;1.40;;
15183;SDS011;7693;49.266;7.104;2023-03-14T17:54:08;2.93;;;1.90;;
15183;SDS011;7693;49.266;7.104;2023-03-14T17:56:33;2.13;;;1.83;;
15183;SDS011;7693;49.266;7.104;2023-03-14T17:58:59;5.30;;;2.03;;
15183;SDS011;7693;49.266;7.104;2023-03-14T18:01:25;2.13;;;2.00;;
15183;SDS011;7693;49.266;7.104;2023-03-14T18:03:51;2.07;;;1.93;;
15183;SDS011;7693;49.266;7.104;2023-03-14T18:06:20;3.43;;;1.90;;
15183;SDS011;7693;49.266;7.104;2023-03-14T18:08:47;2.40;;;2.30;;
15183;SDS011;7693;49.266;7.104;2023-03-14T18:11:14;1.83;;;1.67;;
15183;SDS011;7693;49.266;7.104;2023-03-14T18:13:40;2.33;;;2.13;;
15183;SDS011;7693;49.266;7.104;2023-03-14T18:16:07;4.07;;;3.23;;
15183;SDS011;7693;49.266;7.104;2023-03-14T18:18:37;2.00;;;1.90;;
15183;SDS011;7693;49.266;7.104;2023-03-14T18:21:03;3.13;;;2.17;;
15183;SDS011;7693;49.266;7.104;2023-03-14T18:23:29;2.77;;;2.50;;
15183;SDS011;7693;49.266;7.104;2023-03-14T18:25:56;2.50;;;2.30;;
15183;SDS011;7693;49.266;7.104;2023-03-14T18:28:23;2.00;;;1.90;;
15183;SDS011;7693;49.266;7.104;2023-03-14T18:30:48;2.37;;;2.33;;
15183;SDS011;7693;49.266;7.104;2023-03-14T18:33:17;2.30;;;2.10;;
15183;SDS011;7693;49.266;7.104;2023-03-14T18:35:46;2.77;;;2.57;;
15183;SDS011;7693;49.266;7.104;2023-03-14T18:38:18;2.90;;;1.73;;
15183;SDS011;7693;49.266;7.104;2023-03-14T18:40:43;1.80;;;1.70;;
15183;SDS011;7693;49.266;7.104;2023-03-14T18:43:09;3.13;;;2.10;;
15183;SDS011;7693;49.266;7.104;2023-03-14T18:45:35;2.70;;;1.60;;
15183;SDS011;7693;49.266;7.104;2023-03-14T18:48:01;2.70;;;1.97;;
15183;SDS011;7693;49.266;7.104;2023-03-14T18:50:26;1.90;;;1.80;;
15183;SDS011;7693;49.266;7.104;2023-03-14T18:52:52;2.07;;;1.97;;
15183;SDS011;7693;49.266;7.104;2023-03-14T18:55:18;2.40;;;2.20;;
15183;SDS011;7693;49.266;7.104;2023-03-14T18:57:43;2.10;;;2.00;;
15183;SDS011;7693;49.266;7.104;2023-03-14T19:00:09;2.47;;;2.07;;
15183;SDS011;7693;49.266;7.104;2023-03-14T19:02:37;2.63;;;2.47;;
15183;SDS011;7693;49.266;7.104;2023-03-14T19:05:03;2.00;;;1.90;;
15183;SDS011;7693;49.266;7.104;2023-03-14T19:07:30;2.77;;;2.57;;
15183;SDS011;7693;49.266;7.104;2023-03-14T19:09:58;3.17;;;2.33;;
15183;SDS011;7693;49.266;7.104;2023-03-14T19:12:26;2.20;;;2.10;;
15183;SDS011;7693;49.266;7.104;2023-03-14T19:14:52;3.50;;;2.80;;
15183;SDS011;7693;49.266;7.104;2023-03-14T19:17:18;2.70;;;2.60;;
15183;SDS011;7693;49.266;7.104;2023-03-14T19:19:43;2.57;;;2.37;;
15183;SDS011;7693;49.266;7.104;2023-03-14T19:22:09;2.63;;;1.77;;
15183;SDS011;7693;49.266;7.104;2023-03-14T19:24:35;1.77;;;1.67;;
15183;SDS011;7693;49.266;7.104;2023-03-14T19:27:02;2.00;;;1.90;;
15183;SDS011;7693;49.266;7.104;2023-03-14T19:29:28;2.43;;;2.07;;
15183;SDS011;7693;49.266;7.104;2023-03-14T19:31:53;2.97;;;2.37;;
15183;SDS011;7693;49.266;7.104;2023-03-14T19:34:19;2.60;;;2.50;;
15183;SDS011;7693;49.266;7.104;2023-03-14T19:36:46;2.87;;;2.67;;
15183;SDS011;7693;49.266;7.104;2023-03-14T19:39:12;3.23;;;2.50;;
15183;SDS011;7693;49.266;7.104;2023-03-14T19:41:37;2.23;;;2.03;;
15183;SDS011;7693;49.266;7.104;2023-03-14T19:44:03;2.60;;;2.37;;
15183;SDS011;7693;49.266;7.104;2023-03-14T19:46:29;2.30;;;2.20;;
15183;SDS011;7693;49.266;7.104;2023-03-14T19:48:57;2.40;;;2.20;;
15183;SDS011;7693;49.266;7.104;2023-03-14T19:51:23;2.17;;;2.07;;
15183;SDS011;7693;49.266;7.104;2023-03-14T19:53:49;2.20;;;2.10;;
15183;SDS011;7693;49.266;7.104;2023-03-14T19:56:16;2.50;;;2.40;;
15183;SDS011;7693;49.266;7.104;2023-03-14T19:58:43;2.13;;;2.00;;
15183;SDS011;7693;49.266;7.104;2023-03-14T20:01:09;2.23;;;2.10;;
15183;SDS011;7693;49.266;7.104;2023-03-14T20:03:36;2.17;;;2.07;;
15183;SDS011;7693;49.266;7.104;2023-03-14T20:06:09;9.73;;;5.10;;
15183;SDS011;7693;49.266;7.104;2023-03-14T20:08:36;2.80;;;2.60;;
15183;SDS011;7693;49.266;7.104;2023-03-14T20:11:02;2.00;;;1.90;;
15183;SDS011;7693;49.266;7.104;2023-03-14T20:13:29;2.90;;;2.70;;
15183;SDS011;7693;49.266;7.104;2023-03-14T20:15:54;2.10;;;2.00;;
15183;SDS011;7693;49.266;7.104;2023-03-14T20:18:20;2.67;;;2.47;;
15183;SDS011;7693;49.266;7.104;2023-03-14T20:20:48;2.23;;;2.17;;
15183;SDS011;7693;49.266;7.104;2023-03-14T20:23:14;2.07;;;1.93;;
15183;SDS011;7693;49.266;7.104;2023-03-14T20:25:40;2.30;;;2.20;;
15183;SDS011;7693;49.266;7.104;2023-03-14T20:28:06;2.53;;;2.43;;
15183;SDS011;7693;49.266;7.104;2023-03-14T20:30:32;2.93;;;2.77;;
15183;SDS011;7693;49.266;7.104;2023-03-14T20:32:58;2.47;;;2.30;;
15183;SDS011;7693;49.266;7.104;2023-03-14T20:35:28;2.60;;;2.50;;
15183;SDS011;7693;49.266;7.104;2023-03-14T20:37:54;3.27;;;2.60;;
15183;SDS011;7693;49.266;7.104;2023-03-14T20:40:20;2.30;;;2.20;;
15183;SDS011;7693;49.266;7.104;2023-03-14T20:42:48;2.60;;;2.30;;
15183;SDS011;7693;49.266;7.104;2023-03-14T20:45:14;2.27;;;1.90;;
15183;SDS011;7693;49.266;7.104;2023-03-14T20:47:40;2.07;;;1.97;;
15183;SDS011;7693;49.266;7.104;2023-03-14T20:50:06;2.70;;;2.50;;
15183;SDS011;7693;49.266;7.104;2023-03-14T20:52:32;2.73;;;2.53;;
15183;SDS011;7693;49.266;7.104;2023-03-14T20:54:58;3.40;;;3.20;;
15183;SDS011;7693;49.266;7.104;2023-03-14T20:57:23;1.93;;;1.83;;
15183;SDS011;7693;49.266;7.104;2023-03-14T20:59:49;2.77;;;2.57;;
15183;SDS011;7693;49.266;7.104;2023-03-14T21:02:14;2.57;;;2.40;;
15183;SDS011;7693;49.266;7.104;2023-03-14T21:04:40;2.90;;;2.80;;
15183;SDS011;7693;49.266;7.104;2023-03-14T21:07:06;3.00;;;2.77;;
15183;SDS011;7693;49.266;7.104;2023-03-14T21:09:31;2.20;;;2.10;;
15183;SDS011;7693;49.266;7.104;2023-03-14T21:11:57;2.43;;;2.33;;
15183;SDS011;7693;49.266;7.104;2023-03-14T21:14:23;2.70;;;2.60;;
15183;SDS011;7693;49.266;7.104;2023-03-14T21:16:49;2.60;;;2.40;;
15183;SDS011;7693;49.266;7.104;2023-03-14T21:19:19;2.63;;;2.53;;
15183;SDS011;7693;49.266;7.104;2023-03-14T21:21:45;4.27;;;4.07;;
15183;SDS011;7693;49.266;7.104;2023-03-14T21:24:11;3.60;;;3.47;;
15183;SDS011;7693;49.266;7.104;2023-03-14T21:26:39;3.13;;;2.57;;
15183;SDS011;7693;49.266;7.104;2023-03-14T21:29:06;3.80;;;3.50;;
15183;SDS011;7693;49.266;7.104;2023-03-14T21:31:32;3.10;;;3.00;;
15183;SDS011;7693;49.266;7.104;2023-03-14T21:33:57;2.90;;;2.73;;
15183;SDS011;7693;49.266;7.104;2023-03-14T21:36:23;3.23;;;3.00;;
15183;SDS011;7693;49.266;7.104;2023-03-14T21:38:49;2.70;;;2.60;;
15183;SDS011;7693;49.266;7.104;2023-03-14T21:41:15;2.70;;;2.50;;
15183;SDS011;7693;49.266;7.104;2023-03-14T21:43:41;2.30;;;2.20;;
15183;SDS011;7693;49.266;7.104;2023-03-14T21:46:09;2.73;;;2.63;;
15183;SDS011;7693;49.266;7.104;2023-03-14T21:48:35;2.40;;;2.23;;
15183;SDS011;7693;49.266;7.104;2023-03-14T21:51:02;2.23;;;2.13;;
15183;SDS011;7693;49.266;7.104;2023-03-14T21:53:29;2.33;;;2.20;;
15183;SDS011;7693;49.266;7.104;2023-03-14T21:55:58;2.20;;;2.10;;
15183;SDS011;7693;49.266;7.104;2023-03-14T21:58:25;2.37;;;2.20;;
15183;SDS011;7693;49.266;7.104;2023-03-14T22:00:50;2.10;;;2.00;;
15183;SDS011;7693;49.266;7.104;2023-03-14T22:03:17;2.17;;;2.10;;
15183;SDS011;7693;49.266;7.104;2023-03-14T22:05:47;2.60;;;2.40;;
15183;SDS011;7693;49.266;7.104;2023-03-14T22:08:13;7.43;;;6.80;;
15183;SDS011;7693;49.266;7.104;2023-03-14T22:10:44;5.07;;;4.50;;
15183;SDS011;7693;49.266;7.104;2023-03-14T22:13:11;4.97;;;4.10;;
15183;SDS011;7693;49.266;7.104;2023-03-14T22:15:38;5.03;;;4.53;;
15183;SDS011;7693;49.266;7.104;2023-03-14T22:18:03;4.50;;;3.90;;
15183;SDS011;7693;49.266;7.104;2023-03-14T22:20:29;2.80;;;2.70;;
15183;SDS011;7693;49.266;7.104;2023-03-14T22:22:54;2.67;;;2.53;;
15183;SDS011;7693;49.266;7.104;2023-03-14T22:25:20;2.07;;;1.97;;
15183;SDS011;7693;49.266;7.104;2023-03-14T22:27:45;2.40;;;2.30;;
15183;SDS011;7693;49.266;7.104;2023-03-14T22:30:11;2.20;;;2.00;;
15183;SDS011;7693;49.266;7.104;2023-03-14T22:32:37;2.53;;;2.43;;
15183;SDS011;7693;49.266;7.104;2023-03-14T22:35:03;2.37;;;2.20;;
15183;SDS011;7693;49.266;7.104;2023-03-14T22:37:28;3.27;;;2.30;;
15183;SDS011;7693;49.266;7.104;2023-03-14T22:39:54;2.10;;;2.00;;
15183;SDS011;7693;49.266;7.104;2023-03-14T22:42:19;2.10;;;2.00;;
15183;SDS011;7693;49.266;7.104;2023-03-14T22:44:45;2.30;;;2.20;;
15183;SDS011;7693;49.266;7.104;2023-03-14T22:47:10;2.50;;;2.27;;
15183;SDS011;7693;49.266;7.104;2023-03-14T22:49:36;2.90;;;1.87;;
15183;SDS011;7693;49.266;7.104;2023-03-14T22:52:02;3.80;;;2.20;;
15183;SDS011;7693;49.266;7.104;2023-03-14T22:54:27;2.37;;;2.27;;
15183;SDS011;7693;49.266;7.104;2023-03-14T22:56:53;2.73;;;2.27;;
15183;SDS011;7693;49.266;7.104;2023-03-14T22:59:18;4.00;;;2.30;;
15183;SDS011;7693;49.266;7.104;2023-03-14T23:01:44;2.73;;;2.63;;
15183;SDS011;7693;49.266;7.104;2023-03-14T23:04:09;3.80;;;2.50;;
15183;SDS011;7693;49.266;7.104;2023-03-14T23:06:35;2.50;;;2.40;;
15183;SDS011;7693;49.266;7.104;2023-03-14T23:09:01;2.67;;;2.43;;
15183;SDS011;7693;49.266;7.104;2023-03-14T23:11:27;2.93;;;2.73;;
15183;SDS011;7693;49.266;7.104;2023-03-14T23:13:52;4.07;;;2.60;;
15183;SDS011;7693;49.266;7.104;2023-03-14T23:16:18;2.80;;;2.37;;
15183;SDS011;7693;49.266;7.104;2023-03-14T23:18:48;3.17;;;2.60;;
